Time;durP1;ratioP1;P1;durP2;ratioP2;P2;SDS_P1;SDS_P2;PMS_P1;PMS_P2;Temp;Humidity;BMP_temperature;BMP_pressure;BME280_temperature;BME280_humidity;BME280_pressure;Samples;Min_cycle;Max_cycle;Signal;HPM_P1;HPM_P2
2023/03/26 00:01:32;;;;;;;18.20;2.97;;;7.90;99.90;;;;;;4858724;29;20454;-95
2023/03/26 00:03:58;;;;;;;20.52;2.83;;;7.90;99.90;;;;;;4861011;29;20427;-93
2023/03/26 00:06:27;;;;;;;21.53;2.73;;;7.80;99.90;;;;;;4858821;29;20498;-93
2023/03/26 00:08:56;;;;;;;18.07;2.50;;;7.50;99.90;;;;;;4857058;29;20425;-94
2023/03/26 00:11:23;;;;;;;19.20;2.42;;;8.00;99.90;;;;;;4856566;29;20451;-94
2023/03/26 00:13:52;;;;;;;17.60;2.60;;;7.90;99.90;;;;;;4856504;29;20836;-95
2023/03/26 00:16:19;;;;;;;17.83;2.72;;;7.80;99.90;;;;;;4857731;29;20455;-94
2023/03/26 00:18:46;;;;;;;15.40;2.40;;;7.90;99.90;;;;;;4855949;29;20986;-94
2023/03/26 00:21:14;;;;;;;21.25;3.00;;;7.70;99.90;;;;;;4857516;29;20527;-94
2023/03/26 00:23:41;;;;;;;17.58;3.20;;;8.10;99.90;;;;;;4855576;29;20500;-91
2023/03/26 00:26:10;;;;;;;21.67;3.40;;;7.60;99.90;;;;;;4858316;29;20852;-93
2023/03/26 00:28:41;;;;;;;20.00;3.30;;;7.80;99.90;;;;;;4856174;29;20416;-93
2023/03/26 00:31:13;;;;;;;17.10;2.80;;;7.80;99.90;;;;;;4856253;29;20440;-94
2023/03/26 00:33:40;;;;;;;16.08;2.83;;;7.60;99.90;;;;;;4857453;29;20428;-93
2023/03/26 00:36:13;;;;;;;20.25;3.15;;;7.60;99.90;;;;;;4855477;29;21240;-94
2023/03/26 00:38:39;;;;;;;22.30;2.70;;;7.50;99.90;;;;;;4857804;29;20420;-94
2023/03/26 00:41:16;;;;;;;21.02;2.60;;;7.70;99.90;;;;;;4857828;29;20449;-94
2023/03/26 00:43:45;;;;;;;15.75;2.50;;;7.60;99.90;;;;;;4857334;29;20412;-93
2023/03/26 00:46:11;;;;;;;20.05;2.70;;;7.40;99.90;;;;;;4855855;29;20416;-93
2023/03/26 00:48:38;;;;;;;16.95;3.03;;;7.50;99.90;;;;;;4855298;29;20433;-93
2023/03/26 00:51:05;;;;;;;17.67;2.90;;;7.60;99.90;;;;;;4856565;29;20408;-93
2023/03/26 00:53:32;;;;;;;15.65;3.08;;;7.50;99.90;;;;;;4855624;29;20409;-93
2023/03/26 00:55:59;;;;;;;18.02;2.88;;;7.70;99.90;;;;;;4857428;29;20503;-93
2023/03/26 00:58:28;;;;;;;21.80;3.38;;;7.60;99.90;;;;;;4855054;29;20439;-94
2023/03/26 01:01:03;;;;;;;18.88;2.95;;;7.60;99.90;;;;;;4857054;29;20492;-93
2023/03/26 01:03:34;;;;;;;16.80;2.10;;;7.50;99.90;;;;;;4859680;29;20436;-93
2023/03/26 01:06:26;;;;;;;21.60;3.15;;;7.80;99.90;;;;;;4859438;29;20446;-93
2023/03/26 01:08:58;;;;;;;15.85;2.60;;;7.50;99.90;;;;;;4860129;29;20432;-94
2023/03/26 01:11:29;;;;;;;17.10;2.50;;;7.60;99.90;;;;;;4858517;29;20417;-93
2023/03/26 01:14:06;;;;;;;20.65;2.60;;;7.50;99.90;;;;;;4860430;29;20500;-94
2023/03/26 01:16:43;;;;;;;19.60;3.13;;;7.40;99.90;;;;;;4859939;29;20448;-93
2023/03/26 01:19:43;;;;;;;19.42;2.42;;;7.50;99.90;;;;;;4858400;29;20547;-93
2023/03/26 01:22:12;;;;;;;19.17;3.10;;;7.50;99.90;;;;;;4860052;29;20476;-94
2023/03/26 01:24:39;;;;;;;19.77;3.08;;;7.40;99.90;;;;;;4858497;29;20416;-94
2023/03/26 01:27:30;;;;;;;18.95;2.38;;;8.00;99.90;;;;;;4859800;29;20424;-93
2023/03/26 01:30:04;;;;;;;17.55;1.98;;;7.40;99.90;;;;;;4859723;29;20503;-94
2023/03/26 01:32:57;;;;;;;18.50;2.85;;;7.40;99.90;;;;;;4858499;29;20604;-93
2023/03/26 01:35:37;;;;;;;20.90;2.53;;;7.30;99.90;;;;;;4859668;29;20428;-92
2023/03/26 01:38:21;;;;;;;17.67;2.78;;;7.30;99.90;;;;;;4859160;29;20484;-94
2023/03/26 01:41:05;;;;;;;18.88;2.22;;;7.20;99.90;;;;;;4858827;29;20532;-94
2023/03/26 01:43:37;;;;;;;20.25;2.53;;;7.20;99.90;;;;;;4859661;29;20421;-93
2023/03/26 01:46:06;;;;;;;21.67;2.63;;;7.10;99.90;;;;;;4858152;29;20429;-92
2023/03/26 01:48:38;;;;;;;17.30;2.40;;;7.60;99.90;;;;;;4859359;29;20428;-93
2023/03/26 01:51:05;;;;;;;19.92;2.88;;;7.30;99.90;;;;;;4859223;29;20432;-92
2023/03/26 01:53:33;;;;;;;16.38;2.80;;;6.80;99.90;;;;;;4858821;29;20560;-94
2023/03/26 01:56:25;;;;;;;22.20;2.55;;;7.30;99.90;;;;;;4859322;29;20412;-93
2023/03/26 01:58:59;;;;;;;20.45;2.63;;;7.70;99.90;;;;;;4857642;29;20429;-95
2023/03/26 02:01:31;;;;;;;19.37;2.37;;;7.50;99.90;;;;;;4859021;29;20537;-92
2023/03/26 02:04:29;;;;;;;20.50;3.00;;;7.40;99.90;;;;;;4858759;29;20434;-93
2023/03/26 02:07:01;;;;;;;15.30;2.40;;;7.20;99.90;;;;;;4857201;29;20429;-93
2023/03/26 02:09:30;;;;;;;19.08;2.17;;;7.20;99.90;;;;;;4859259;29;20437;-93
2023/03/26 02:11:57;;;;;;;18.58;2.20;;;7.20;99.90;;;;;;4857361;29;20417;-93
2023/03/26 02:14:24;;;;;;;21.23;2.72;;;7.20;99.90;;;;;;4858653;29;20497;-95
2023/03/26 02:16:50;;;;;;;21.27;2.80;;;7.40;99.90;;;;;;4857742;29;20421;-93
2023/03/26 02:19:20;;;;;;;19.58;2.90;;;7.30;99.90;;;;;;4842636;29;20472;-94
2023/03/26 02:21:50;;;;;;;20.45;3.00;;;7.20;99.90;;;;;;4858871;29;20492;-93
2023/03/26 02:24:17;;;;;;;20.35;2.75;;;7.40;99.90;;;;;;4857597;29;20428;-93
2023/03/26 02:26:43;;;;;;;19.83;2.75;;;6.90;99.90;;;;;;4859044;29;20894;-92
2023/03/26 02:29:09;;;;;;;19.88;2.42;;;7.30;99.90;;;;;;4857116;29;20459;-94
2023/03/26 02:31:35;;;;;;;19.15;2.47;;;7.40;99.90;;;;;;4858994;29;21018;-92
2023/03/26 02:34:01;;;;;;;18.58;2.95;;;7.30;99.90;;;;;;4857172;29;20516;-92
2023/03/26 02:36:27;;;;;;;18.52;2.38;;;7.30;99.90;;;;;;4858475;29;20416;-93
2023/03/26 02:38:54;;;;;;;20.38;2.30;;;7.20;99.90;;;;;;4857973;29;20433;-91
2023/03/26 02:41:20;;;;;;;17.63;2.72;;;7.20;99.90;;;;;;4857220;29;20463;-94
2023/03/26 02:43:46;;;;;;;22.10;3.00;;;7.20;99.90;;;;;;4858707;29;20417;-93
2023/03/26 02:46:11;;;;;;;19.10;2.88;;;7.40;99.90;;;;;;4856911;29;20428;-92
2023/03/26 02:48:37;;;;;;;18.98;2.78;;;7.50;99.90;;;;;;4858491;29;20428;-93
2023/03/26 02:51:05;;;;;;;19.23;2.60;;;7.40;99.90;;;;;;4856895;29;20451;-93
2023/03/26 02:53:31;;;;;;;21.10;2.70;;;7.30;99.90;;;;;;4858597;29;20448;-95
2023/03/26 02:55:58;;;;;;;16.67;2.88;;;7.50;99.90;;;;;;4857971;29;20479;-92
2023/03/26 02:58:25;;;;;;;21.43;2.93;;;7.10;99.90;;;;;;4857491;29;20424;-93
2023/03/26 03:00:54;;;;;;;20.67;3.08;;;7.50;99.90;;;;;;4858204;29;20982;-92
2023/03/26 03:03:23;;;;;;;19.63;2.35;;;7.50;99.90;;;;;;4856762;29;20472;-93
2023/03/26 03:05:58;;;;;;;23.10;2.70;;;7.40;99.90;;;;;;4858571;29;20912;-92
2023/03/26 03:08:26;;;;;;;18.33;2.85;;;7.10;99.90;;;;;;4857855;29;20435;-94
2023/03/26 03:11:00;;;;;;;18.42;2.72;;;7.10;99.90;;;;;;4861221;29;20430;-92
2023/03/26 03:13:27;;;;;;;19.33;2.88;;;7.30;99.90;;;;;;4860549;29;20997;-92
2023/03/26 03:15:53;;;;;;;20.30;2.88;;;7.20;99.90;;;;;;4860108;29;20442;-93
2023/03/26 03:18:19;;;;;;;21.58;3.20;;;7.30;99.90;;;;;;4861911;29;20415;-93
2023/03/26 03:20:45;;;;;;;22.00;3.00;;;7.30;99.90;;;;;;4859300;29;21110;-93
2023/03/26 03:23:11;;;;;;;17.00;2.50;;;7.00;99.90;;;;;;4861215;29;20414;-93
2023/03/26 03:25:37;;;;;;;22.93;3.13;;;7.20;99.90;;;;;;4859553;29;20797;-92
2023/03/26 03:28:03;;;;;;;24.15;3.15;;;6.90;99.90;;;;;;4861392;29;20415;-92
2023/03/26 03:30:29;;;;;;;19.50;2.92;;;6.80;99.90;;;;;;4860138;29;20595;-92
2023/03/26 03:32:57;;;;;;;18.20;2.80;;;6.80;99.90;;;;;;4860827;29;20905;-94
2023/03/26 03:35:24;;;;;;;23.15;2.78;;;6.80;99.90;;;;;;4860825;29;20423;-92
2023/03/26 03:37:50;;;;;;;20.85;2.90;;;6.40;99.90;;;;;;4859670;29;20415;-92
2023/03/26 03:40:15;;;;;;;22.77;2.60;;;6.60;99.90;;;;;;4861035;29;20415;-92
2023/03/26 03:42:41;;;;;;;19.67;2.80;;;6.30;99.90;;;;;;4859105;29;20451;-92
2023/03/26 03:45:07;;;;;;;19.70;2.85;;;6.20;99.90;;;;;;4861188;29;20411;-94
2023/03/26 03:47:33;;;;;;;21.63;2.78;;;6.10;99.90;;;;;;4859961;29;20941;-92
2023/03/26 03:49:59;;;;;;;20.20;2.78;;;6.30;99.90;;;;;;4860430;29;20415;-93
2023/03/26 03:52:26;;;;;;;22.00;3.08;;;6.00;99.90;;;;;;4860343;29;20423;-92
2023/03/26 03:54:53;;;;;;;22.47;3.13;;;5.90;99.90;;;;;;4859970;29;20842;-93
2023/03/26 03:57:20;;;;;;;21.45;3.10;;;5.90;99.90;;;;;;4860853;29;20548;-93
2023/03/26 03:59:48;;;;;;;21.35;3.97;;;5.80;99.90;;;;;;4858940;29;20933;-93
2023/03/26 04:02:19;;;;;;;24.77;4.00;;;5.90;99.90;;;;;;4860738;29;20451;-92
2023/03/26 04:04:48;;;;;;;21.48;3.55;;;5.70;99.90;;;;;;4859531;29;21086;-92
2023/03/26 04:07:14;;;;;;;25.27;4.07;;;5.60;99.90;;;;;;4860496;29;21094;-92
2023/03/26 04:09:40;;;;;;;18.30;3.63;;;5.50;99.90;;;;;;4860132;29;20946;-92
2023/03/26 04:12:06;;;;;;;24.65;3.83;;;5.40;99.90;;;;;;4859525;29;20427;-93
2023/03/26 04:14:31;;;;;;;22.38;4.13;;;5.30;99.90;;;;;;4860480;29;20427;-92
2023/03/26 04:16:57;;;;;;;19.63;3.97;;;5.20;99.90;;;;;;4858908;29;20411;-93
2023/03/26 04:19:23;;;;;;;20.73;4.03;;;5.10;99.90;;;;;;4860670;29;20411;-93
2023/03/26 04:21:49;;;;;;;20.35;3.13;;;5.10;99.90;;;;;;4858975;29;20451;-92
2023/03/26 04:24:14;;;;;;;18.85;3.13;;;5.10;99.90;;;;;;4860702;29;20429;-91
2023/03/26 04:26:40;;;;;;;21.93;3.47;;;5.00;99.90;;;;;;4859538;29;20422;-92
2023/03/26 04:29:11;;;;;;;21.27;3.13;;;5.00;99.90;;;;;;4859972;29;20507;-92
2023/03/26 04:31:37;;;;;;;23.05;3.60;;;5.00;99.90;;;;;;4860436;29;20426;-92
2023/03/26 04:34:17;;;;;;;22.03;3.60;;;5.20;99.90;;;;;;4859298;29;20479;-95
2023/03/26 04:36:45;;;;;;;21.87;3.30;;;5.00;99.90;;;;;;4861376;29;21001;-92
2023/03/26 04:39:12;;;;;;;26.05;4.22;;;5.00;99.90;;;;;;4862036;29;20413;-92
2023/03/26 04:41:38;;;;;;;22.67;3.78;;;5.00;99.90;;;;;;4863853;29;20438;-92
2023/03/26 04:44:04;;;;;;;22.33;3.53;;;5.00;99.90;;;;;;4863140;29;20427;-92
2023/03/26 04:46:32;;;;;;;22.40;3.20;;;4.90;99.90;;;;;;4863134;29;20441;-92
2023/03/26 04:48:59;;;;;;;21.23;2.70;;;4.90;99.90;;;;;;4863742;29;20427;-91
2023/03/26 04:51:29;;;;;;;22.17;2.88;;;5.20;99.90;;;;;;4862388;29;20914;-94
2023/03/26 04:53:59;;;;;;;24.38;3.53;;;4.60;99.90;;;;;;4863909;29;20918;-93
2023/03/26 04:56:34;;;;;;;21.80;2.70;;;4.60;99.90;;;;;;4862498;29;20427;-92
2023/03/26 04:59:01;;;;;;;24.30;3.58;;;4.60;99.90;;;;;;4863523;29;20415;-93
2023/03/26 05:01:27;;;;;;;19.15;2.70;;;4.70;99.90;;;;;;4862700;29;20477;-93
2023/03/26 05:03:53;;;;;;;23.25;3.50;;;4.50;99.90;;;;;;4863147;29;21017;-93
2023/03/26 05:06:20;;;;;;;25.80;4.30;;;4.50;99.90;;;;;;4863430;29;20834;-91
2023/03/26 05:08:46;;;;;;;22.67;3.40;;;4.50;99.90;;;;;;4861781;29;20578;-94
2023/03/26 05:11:12;;;;;;;20.88;2.97;;;4.70;99.90;;;;;;4863372;29;20419;-92
2023/03/26 05:13:41;;;;;;;15.95;2.70;;;4.50;99.90;;;;;;4861771;29;20468;-93
2023/03/26 05:16:09;;;;;;;18.80;3.05;;;4.40;99.90;;;;;;4863490;29;20437;-93
2023/03/26 05:18:35;;;;;;;18.58;3.00;;;4.30;99.90;;;;;;4862444;29;20415;-92
2023/03/26 05:21:01;;;;;;;17.10;2.50;;;4.30;99.90;;;;;;4862761;29;20451;-92
2023/03/26 05:23:26;;;;;;;19.23;2.57;;;4.30;99.90;;;;;;4862665;29;20427;-93
2023/03/26 05:25:52;;;;;;;18.70;2.67;;;4.30;99.90;;;;;;4861755;29;20510;-93
2023/03/26 05:28:19;;;;;;;20.80;3.13;;;4.40;99.90;;;;;;4862991;29;20965;-92
2023/03/26 05:30:45;;;;;;;16.83;2.30;;;4.40;99.90;;;;;;4861359;29;20490;-93
2023/03/26 05:33:11;;;;;;;20.50;2.03;;;4.50;99.90;;;;;;4863164;29;20470;-92
2023/03/26 05:35:37;;;;;;;14.20;2.00;;;4.50;99.90;;;;;;4861572;29;20458;-93
2023/03/26 05:38:03;;;;;;;15.85;2.10;;;4.50;99.90;;;;;;4862945;29;20543;-93
2023/03/26 05:40:28;;;;;;;21.30;2.73;;;4.60;99.90;;;;;;4862531;29;20946;-92
2023/03/26 05:42:54;;;;;;;19.47;2.67;;;4.60;99.90;;;;;;4861944;29;20474;-92
2023/03/26 05:45:21;;;;;;;19.23;2.70;;;4.90;99.90;;;;;;4862843;29;20510;-93
2023/03/26 05:47:48;;;;;;;14.70;2.28;;;4.90;99.90;;;;;;4860760;29;20972;-93
2023/03/26 05:50:14;;;;;;;16.70;2.25;;;4.90;99.90;;;;;;4862284;29;20946;-92
2023/03/26 05:52:40;;;;;;;20.30;2.70;;;4.90;99.90;;;;;;4860986;29;20478;-92
2023/03/26 05:55:07;;;;;;;18.88;2.10;;;5.00;99.90;;;;;;4862676;29;20423;-93
2023/03/26 05:57:34;;;;;;;14.82;2.40;;;4.90;99.90;;;;;;4861371;29;20458;-93
2023/03/26 06:00:01;;;;;;;18.02;2.03;;;5.10;99.90;;;;;;4862012;29;20450;-92
2023/03/26 06:02:28;;;;;;;21.35;2.50;;;5.40;99.90;;;;;;4862233;29;20443;-92
2023/03/26 06:04:55;;;;;;;16.25;1.83;;;5.20;99.90;;;;;;4861074;29;20416;-94
2023/03/26 06:07:21;;;;;;;16.80;2.33;;;5.30;99.90;;;;;;4862623;29;20906;-93
2023/03/26 06:09:47;;;;;;;14.13;2.17;;;5.30;99.90;;;;;;4860681;29;20424;-92
2023/03/26 06:12:14;;;;;;;18.23;2.05;;;5.30;99.90;;;;;;4862368;29;20423;-93
2023/03/26 06:14:41;;;;;;;17.27;2.08;;;5.40;99.90;;;;;;4861093;29;20422;-92
2023/03/26 06:17:08;;;;;;;12.85;1.90;;;5.40;99.90;;;;;;4862105;29;20439;-93
2023/03/26 06:19:34;;;;;;;17.95;2.25;;;5.70;99.90;;;;;;4861564;29;20411;-93
2023/03/26 06:22:00;;;;;;;16.98;2.53;;;5.50;99.90;;;;;;4861064;29;21160;-92
2023/03/26 06:24:26;;;;;;;15.38;2.10;;;5.60;99.90;;;;;;4862198;29;20421;-93
2023/03/26 06:26:51;;;;;;;19.20;2.43;;;5.60;99.90;;;;;;4860634;29;20511;-93
2023/03/26 06:29:17;;;;;;;17.00;2.20;;;5.70;99.90;;;;;;4862119;29;20772;-92
2023/03/26 06:31:43;;;;;;;14.52;1.98;;;5.70;99.90;;;;;;4860802;29;20490;-93
2023/03/26 06:34:08;;;;;;;16.13;2.35;;;5.80;99.90;;;;;;4862132;29;20510;-92
2023/03/26 06:36:34;;;;;;;18.75;2.47;;;6.00;99.90;;;;;;4860764;29;20757;-92
2023/03/26 06:39:00;;;;;;;17.97;2.70;;;6.10;99.90;;;;;;4861810;29;20529;-92
2023/03/26 06:41:25;;;;;;;15.03;1.90;;;6.10;99.90;;;;;;4861353;29;20446;-93
2023/03/26 06:43:51;;;;;;;16.10;2.17;;;5.90;99.90;;;;;;4860385;29;20423;-93
2023/03/26 06:46:19;;;;;;;17.25;2.17;;;6.50;99.90;;;;;;4861832;29;20486;-93
2023/03/26 06:48:45;;;;;;;15.35;2.53;;;6.20;99.90;;;;;;4860038;29;20422;-92
2023/03/26 06:51:11;;;;;;;20.50;2.67;;;6.40;99.90;;;;;;4861823;29;20482;-93
2023/03/26 06:53:37;;;;;;;17.77;2.20;;;6.40;99.90;;;;;;4860793;29;20517;-92
2023/03/26 06:56:02;;;;;;;15.20;2.40;;;6.50;99.90;;;;;;4861222;29;20422;-92
2023/03/26 06:58:29;;;;;;;11.38;1.45;;;6.50;99.90;;;;;;4860638;29;20433;-92
2023/03/26 07:00:55;;;;;;;16.25;2.60;;;6.60;99.90;;;;;;4860246;29;20526;-93
2023/03/26 07:03:22;;;;;;;16.38;2.25;;;6.60;99.90;;;;;;4861265;29;20925;-93
2023/03/26 07:05:48;;;;;;;16.67;2.38;;;6.80;99.90;;;;;;4860138;29;20756;-93
2023/03/26 07:08:14;;;;;;;13.15;1.98;;;7.00;99.90;;;;;;4861248;29;20487;-93
2023/03/26 07:10:40;;;;;;;13.10;2.05;;;7.20;99.90;;;;;;4859718;29;20423;-91
2023/03/26 07:13:06;;;;;;;16.00;2.50;;;7.20;99.90;;;;;;4861159;29;20431;-92
2023/03/26 07:15:32;;;;;;;16.08;2.40;;;7.30;99.90;;;;;;4859981;29;20495;-91
2023/03/26 07:17:57;;;;;;;12.73;2.50;;;7.40;99.90;;;;;;4860466;29;20800;-93
2023/03/26 07:20:23;;;;;;;19.23;2.47;;;7.30;99.90;;;;;;4861096;29;20922;-92
2023/03/26 07:22:49;;;;;;;15.07;2.83;;;7.30;99.90;;;;;;4859707;29;20446;-92
2023/03/26 07:25:16;;;;;;;15.52;2.60;;;7.30;99.90;;;;;;4861315;29;20431;-93
2023/03/26 07:28:04;;;;;;;14.93;2.40;;;7.40;99.90;;;;;;4859199;29;20505;-92
2023/03/26 07:30:55;;;;;;;14.77;2.28;;;7.40;99.90;;;;;;4860800;29;20435;-93
2023/03/26 07:33:37;;;;;;;12.73;1.95;;;7.50;99.90;;;;;;4860549;29;20459;-92
2023/03/26 07:36:18;;;;;;;14.65;2.22;;;7.60;99.90;;;;;;4859214;29;20486;-93
2023/03/26 07:38:59;;;;;;;17.85;2.55;;;7.50;99.90;;;;;;4861301;29;20897;-93
2023/03/26 07:41:33;;;;;;;15.82;2.58;;;7.50;99.90;;;;;;4859965;29;20443;-93
2023/03/26 07:44:08;;;;;;;16.10;2.28;;;7.50;99.90;;;;;;4860199;29;20450;-92
2023/03/26 07:46:35;;;;;;;14.73;1.88;;;7.50;99.90;;;;;;4860368;29;20459;-92
2023/03/26 07:49:03;;;;;;;15.88;1.92;;;7.60;99.90;;;;;;4859489;29;20426;-91
2023/03/26 07:51:30;;;;;;;15.03;2.20;;;7.70;99.90;;;;;;4860913;29;20446;-94
2023/03/26 07:53:58;;;;;;;13.27;1.75;;;7.90;99.90;;;;;;4859256;29;20541;-92
2023/03/26 07:56:50;;;;;;;10.98;1.00;;;8.00;99.90;;;;;;4860860;29;20419;-92
2023/03/26 07:59:46;;;;;;;11.60;1.67;;;8.20;99.90;;;;;;4860168;29;20486;-93
2023/03/26 08:02:27;;;;;;;14.73;1.63;;;8.50;99.90;;;;;;4859051;29;20514;-91
2023/03/26 08:05:18;;;;;;;11.30;1.35;;;8.80;99.10;;;;;;4861223;29;20480;-89
2023/03/26 08:08:12;;;;;;;10.98;1.52;;;8.80;96.80;;;;;;4860109;29;20435;-91
2023/03/26 08:10:59;;;;;;;14.93;1.57;;;8.90;96.70;;;;;;4858770;29;20430;-91
2023/03/26 08:13:46;;;;;;;11.30;1.73;;;9.10;98.10;;;;;;4864062;29;20423;-91
2023/03/26 08:16:35;;;;;;;12.55;1.58;;;9.40;97.00;;;;;;4863392;29;20922;-92
2023/03/26 08:19:07;;;;;;;10.25;1.27;;;9.40;92.90;;;;;;4862991;29;20426;-92
2023/03/26 08:21:52;;;;;;;14.10;1.67;;;9.40;91.40;;;;;;4864384;29;20462;-92
2023/03/26 08:24:42;;;;;;;12.15;1.80;;;8.90;93.00;;;;;;4862963;29;20513;-92
2023/03/26 08:27:24;;;;;;;12.00;1.73;;;8.80;95.60;;;;;;4863873;29;20518;-92
2023/03/26 08:30:28;;;;;;;15.55;1.98;;;9.00;97.90;;;;;;4864035;29;20465;-91
2023/03/26 08:33:10;;;;;;;11.68;1.65;;;9.00;95.90;;;;;;4812424;29;20960;-90
2023/03/26 08:35:41;;;;;;;14.25;2.00;;;9.30;94.40;;;;;;4864075;29;20514;-92
2023/03/26 08:38:18;;;;;;;13.82;1.80;;;9.50;94.20;;;;;;4863481;29;20418;-91
2023/03/26 08:41:23;;;;;;;12.82;2.10;;;9.80;91.60;;;;;;4862317;29;20426;-92
2023/03/26 08:44:19;;;;;;;16.50;1.90;;;9.80;91.90;;;;;;4863927;29;21024;-93
2023/03/26 08:47:03;;;;;;;11.43;1.63;;;9.80;85.80;;;;;;4863346;29;20426;-93
2023/03/26 08:49:48;;;;;;;15.27;1.90;;;9.90;87.90;;;;;;4862135;29;20433;-93
2023/03/26 08:52:20;;;;;;;14.52;1.88;;;9.70;91.20;;;;;;4864208;29;20454;-93
2023/03/26 08:54:56;;;;;;;14.80;2.05;;;9.90;91.70;;;;;;4862319;29;20458;-92
2023/03/26 08:58:01;;;;;;;13.45;2.03;;;9.90;86.00;;;;;;4863056;29;20427;-92
2023/03/26 09:00:30;;;;;;;15.13;1.88;;;10.10;88.20;;;;;;4863765;29;20996;-90
2023/03/26 09:03:33;;;;;;;13.95;1.60;;;10.50;79.30;;;;;;4861793;29;20443;-92
2023/03/26 09:06:21;;;;;;;12.00;1.70;;;10.50;81.50;;;;;;4862949;29;20471;-91
2023/03/26 09:09:08;;;;;;;10.43;1.80;;;10.60;79.80;;;;;;4863076;29;20510;-91
2023/03/26 09:12:01;;;;;;;11.88;1.42;;;10.70;73.60;;;;;;4861614;29;20426;-93
2023/03/26 09:14:36;;;;;;;11.20;1.42;;;10.80;71.80;;;;;;4863208;29;20482;-92
2023/03/26 09:17:14;;;;;;;14.77;2.00;;;10.90;73.80;;;;;;4862682;29;20431;-92
2023/03/26 09:19:58;;;;;;;11.02;1.38;;;10.90;70.60;;;;;;4862173;29;20778;-92
2023/03/26 09:22:47;;;;;;;14.77;1.83;;;10.90;75.90;;;;;;4862381;29;20658;-93
2023/03/26 09:25:24;;;;;;;11.88;1.60;;;11.00;74.40;;;;;;4861709;29;20466;-91
2023/03/26 09:28:15;;;;;;;13.38;1.80;;;11.20;73.80;;;;;;4862971;29;20762;-92
2023/03/26 09:31:06;;;;;;;11.60;1.35;;;11.00;68.30;;;;;;4863085;29;20506;-92
2023/03/26 09:33:58;;;;;;;14.57;1.42;;;10.90;71.50;;;;;;4818839;29;20941;-91
2023/03/26 09:36:24;;;;;;;10.93;1.27;;;10.70;70.00;;;;;;4862264;29;20423;-94
2023/03/26 09:39:16;;;;;;;11.27;1.30;;;10.70;71.80;;;;;;4863015;29;20515;-92
2023/03/26 09:41:56;;;;;;;12.73;1.70;;;10.60;69.40;;;;;;4861077;29;20576;-92
2023/03/26 09:44:48;;;;;;;12.30;1.45;;;10.50;70.00;;;;;;4863084;29;20447;-93
2023/03/26 09:47:23;;;;;;;12.80;1.47;;;10.20;69.80;;;;;;4862032;29;20423;-91
2023/03/26 09:49:48;;;;;;;13.40;1.30;;;10.20;72.00;;;;;;4861587;29;20550;-91
2023/03/26 09:52:48;;;;;;;13.57;1.65;;;10.20;74.50;;;;;;4862969;29;20498;-92
2023/03/26 09:55:48;;;;;;;11.82;1.30;;;10.40;72.80;;;;;;4861038;29;20419;-92
2023/03/26 09:58:26;;;;;;;10.35;1.33;;;10.50;69.50;;;;;;4861931;29;20431;-93
2023/03/26 10:01:19;;;;;;;11.88;1.70;;;10.50;70.50;;;;;;4862310;29;20434;-92
2023/03/26 10:04:00;;;;;;;11.93;1.27;;;10.60;72.80;;;;;;4861139;29;20518;-94
2023/03/26 10:06:40;;;;;;;10.40;1.07;;;10.50;66.60;;;;;;4862231;29;20474;-92
2023/03/26 10:09:47;;;;;;;10.00;1.20;;;10.40;68.60;;;;;;4862138;29;20782;-92
2023/03/26 10:12:31;;;;;;;10.80;1.67;;;10.40;69.40;;;;;;4845797;29;20420;-93
2023/03/26 10:15:01;;;;;;;9.82;1.33;;;10.50;65.50;;;;;;4862359;29;20442;-92
2023/03/26 10:17:35;;;;;;;13.10;1.50;;;10.70;67.10;;;;;;4861416;29;20410;-92
2023/03/26 10:20:16;;;;;;;9.85;1.00;;;10.80;66.10;;;;;;4860783;29;20427;-92
2023/03/26 10:23:29;;;;;;;10.88;1.38;;;10.50;64.80;;;;;;4862068;29;20479;-92
2023/03/26 10:25:58;;;;;;;13.25;1.52;;;10.80;68.00;;;;;;4769186;29;20439;-92
2023/03/26 10:28:42;;;;;;;10.90;1.43;;;10.90;66.00;;;;;;4851828;29;20609;-93
2023/03/26 10:31:36;;;;;;;10.52;1.00;;;10.90;67.20;;;;;;4861968;29;20434;-92
2023/03/26 10:34:36;;;;;;;10.70;1.53;;;10.90;67.70;;;;;;4859674;29;20419;-92
2023/03/26 10:37:09;;;;;;;10.43;1.53;;;10.90;67.10;;;;;;4861787;29;20908;-92
2023/03/26 10:40:06;;;;;;;9.75;1.15;;;11.00;67.10;;;;;;4861767;29;20501;-92
2023/03/26 10:43:11;;;;;;;10.98;1.40;;;11.00;62.80;;;;;;4860140;29;20516;-92
2023/03/26 10:45:53;;;;;;;9.60;1.08;;;10.90;66.00;;;;;;4848077;29;20491;-91
2023/03/26 10:48:53;;;;;;;11.10;1.25;;;10.90;66.00;;;;;;4861824;29;20427;-92
2023/03/26 10:51:44;;;;;;;10.38;1.20;;;11.00;66.50;;;;;;4830432;29;20438;-92
2023/03/26 10:54:23;;;;;;;10.85;1.70;;;11.00;63.40;;;;;;4861441;29;20510;-92
2023/03/26 10:56:50;;;;;;;11.27;1.38;;;11.00;67.00;;;;;;4861445;29;20423;-92
2023/03/26 10:59:17;;;;;;;9.82;1.17;;;11.30;64.80;;;;;;4859939;29;20415;-91
2023/03/26 11:02:02;;;;;;;11.10;1.35;;;10.90;62.90;;;;;;4861223;29;20443;-92
2023/03/26 11:04:27;;;;;;;10.00;1.63;;;11.00;63.50;;;;;;4859829;29;20430;-93
2023/03/26 11:06:59;;;;;;;7.73;0.80;;;11.30;64.10;;;;;;4861216;29;20427;-91
2023/03/26 11:09:47;;;;;;;10.00;1.02;;;11.30;63.00;;;;;;4860322;29;20796;-91
2023/03/26 11:12:30;;;;;;;8.63;1.02;;;11.50;63.70;;;;;;4859594;29;20427;-91
2023/03/26 11:15:03;;;;;;;10.68;1.40;;;11.70;62.30;;;;;;4861601;29;20842;-92
2023/03/26 11:17:45;;;;;;;10.70;1.20;;;11.90;61.30;;;;;;4859220;29;21037;-93
2023/03/26 11:20:29;;;;;;;8.65;1.30;;;12.00;59.60;;;;;;4860826;29;20426;-92
2023/03/26 11:23:12;;;;;;;8.73;1.20;;;11.80;57.50;;;;;;4860876;29;20450;-93
2023/03/26 11:25:56;;;;;;;8.57;1.10;;;11.90;60.20;;;;;;4859308;29;20427;-94
2023/03/26 11:28:55;;;;;;;9.07;1.08;;;12.30;59.20;;;;;;4861211;29;20986;-92
2023/03/26 11:31:55;;;;;;;8.35;1.30;;;12.40;56.80;;;;;;4860963;29;20849;-93
2023/03/26 11:34:47;;;;;;;9.55;1.55;;;12.30;58.40;;;;;;4859202;29;20434;-95
2023/03/26 11:37:26;;;;;;;10.07;1.60;;;12.40;58.60;;;;;;4818643;29;20419;-94
2023/03/26 11:39:54;;;;;;;10.27;1.20;;;12.20;58.80;;;;;;4860615;29;20446;-94
2023/03/26 11:42:23;;;;;;;9.32;1.52;;;12.10;56.20;;;;;;4859591;29;20438;-92
2023/03/26 11:44:57;;;;;;;9.27;1.25;;;11.90;56.40;;;;;;4860837;29;20429;-91
2023/03/26 11:47:39;;;;;;;9.90;1.00;;;12.20;59.20;;;;;;4858653;29;20429;-92
2023/03/26 11:50:07;;;;;;;9.13;1.35;;;12.10;58.50;;;;;;4860698;29;20415;-93
2023/03/26 11:52:32;;;;;;;7.87;1.10;;;12.20;58.00;;;;;;4860091;29;20430;-93
2023/03/26 11:54:58;;;;;;;9.67;1.17;;;12.30;57.00;;;;;;4860098;29;20415;-92
2023/03/26 11:57:34;;;;;;;10.00;1.20;;;12.70;57.00;;;;;;4860383;29;20832;-91
2023/03/26 12:00:16;;;;;;;12.52;1.30;;;12.20;56.30;;;;;;4859108;29;20459;-92
2023/03/26 12:02:44;;;;;;;8.27;1.17;;;12.30;58.40;;;;;;4860754;29;20525;-93
2023/03/26 12:05:14;;;;;;;10.20;1.30;;;12.40;57.70;;;;;;4859197;29;20514;-93
2023/03/26 12:07:55;;;;;;;8.07;0.93;;;12.20;56.10;;;;;;4860431;29;20429;-91
2023/03/26 12:10:23;;;;;;;7.68;0.88;;;12.10;58.30;;;;;;4860473;29;20905;-95
2023/03/26 12:12:52;;;;;;;6.65;0.60;;;12.10;58.90;;;;;;4859236;29;20982;-92
2023/03/26 12:15:20;;;;;;;8.60;0.90;;;12.20;56.90;;;;;;4860436;29;20419;-94
2023/03/26 12:17:50;;;;;;;8.95;1.20;;;11.60;55.60;;;;;;4859047;29;20928;-92
2023/03/26 12:20:25;;;;;;;9.48;1.20;;;11.70;56.60;;;;;;4860602;29;20926;-93
2023/03/26 12:22:51;;;;;;;9.25;1.20;;;11.60;58.90;;;;;;4859482;29;20570;-93
2023/03/26 12:25:21;;;;;;;8.40;0.70;;;11.40;55.40;;;;;;4860250;29;20497;-93
2023/03/26 12:27:48;;;;;;;9.75;1.00;;;11.30;58.60;;;;;;4860677;29;20414;-91
2023/03/26 12:30:29;;;;;;;8.55;1.00;;;11.40;57.80;;;;;;4858679;29;20433;-92
2023/03/26 12:33:25;;;;;;;8.67;1.00;;;11.50;58.40;;;;;;4860745;29;20521;-95
2023/03/26 12:35:52;;;;;;;8.82;0.85;;;12.00;60.00;;;;;;4859420;29;20559;-93
2023/03/26 12:38:32;;;;;;;7.47;1.20;;;12.00;59.60;;;;;;4860129;29;20498;-93
2023/03/26 12:41:09;;;;;;;8.13;1.00;;;12.30;58.10;;;;;;4860398;29;20934;-93
2023/03/26 12:43:45;;;;;;;7.43;0.95;;;12.50;56.30;;;;;;4858922;29;20422;-92
2023/03/26 12:46:30;;;;;;;9.95;1.10;;;12.30;55.40;;;;;;4860443;29;20438;-93
2023/03/26 12:49:04;;;;;;;7.00;0.83;;;12.40;55.90;;;;;;4859028;29;20482;-92
2023/03/26 12:51:52;;;;;;;10.32;1.30;;;12.10;56.20;;;;;;4859166;29;20482;-93
2023/03/26 12:54:44;;;;;;;7.88;1.00;;;12.20;58.20;;;;;;4860248;29;20433;-91
2023/03/26 12:57:15;;;;;;;9.88;1.10;;;12.20;58.40;;;;;;4859555;29;20426;-93
2023/03/26 13:00:20;;;;;;;7.95;1.05;;;12.10;57.60;;;;;;4863270;29;20428;-92
2023/03/26 13:02:57;;;;;;;6.57;0.90;;;11.90;55.10;;;;;;4863877;29;20438;-94
2023/03/26 13:05:33;;;;;;;7.88;0.60;;;11.60;55.80;;;;;;4861549;29;20423;-93
2023/03/26 13:08:23;;;;;;;7.47;0.90;;;11.40;56.70;;;;;;4863837;29;20431;-91
2023/03/26 13:10:52;;;;;;;7.50;1.20;;;11.00;57.90;;;;;;4863120;29;20431;-94
2023/03/26 13:13:57;;;;;;;12.13;2.33;;;10.90;58.60;;;;;;4862278;29;20427;-93
2023/03/26 13:16:39;;;;;;;9.15;1.77;;;11.20;59.20;;;;;;4863601;29;20498;-93
2023/03/26 13:19:17;;;;;;;7.75;1.15;;;11.60;59.30;;;;;;4861792;29;20423;-92
2023/03/26 13:22:13;;;;;;;6.38;0.85;;;11.90;56.30;;;;;;4862385;29;20442;-93